createdAt,value
2022-10-10T00:02:00.650Z,21.50
2022-10-10T00:04:27.122Z,19.83
2022-10-10T00:06:53.535Z,21.67
2022-10-10T00:09:19.978Z,20.23
2022-10-10T00:11:46.397Z,20.63
2022-10-10T00:14:12.842Z,20.40
2022-10-10T00:16:39.252Z,21.87
2022-10-10T00:19:05.704Z,17.70
2022-10-10T00:21:32.206Z,22.27
2022-10-10T00:23:58.760Z,22.30
2022-10-10T00:26:25.258Z,18.07
2022-10-10T00:28:51.752Z,20.70
2022-10-10T00:31:18.415Z,17.83
2022-10-10T00:33:44.928Z,17.87
2022-10-10T00:36:11.375Z,18.90
2022-10-10T00:38:37.798Z,18.33
2022-10-10T00:41:04.330Z,21.80
2022-10-10T00:43:30.867Z,18.10
2022-10-10T00:45:57.352Z,21.03
2022-10-10T00:48:23.807Z,17.43
2022-10-10T00:50:57.571Z,21.23
2022-10-10T00:53:25.358Z,17.20
2022-10-10T00:55:51.789Z,28.00
2022-10-10T00:58:18.270Z,17.33
2022-10-10T01:00:44.772Z,17.37
2022-10-10T01:03:11.222Z,16.67
2022-10-10T01:05:37.701Z,19.83
2022-10-10T01:08:04.436Z,21.37
2022-10-10T01:10:30.942Z,17.20
2022-10-10T01:13:12.536Z,18.43
2022-10-10T01:15:44.956Z,18.17
2022-10-10T01:18:30.196Z,18.10
2022-10-10T01:21:01.964Z,16.60
2022-10-10T01:23:37.479Z,16.53
2022-10-10T01:26:13.010Z,19.40
2022-10-10T01:28:44.507Z,17.93
2022-10-10T01:31:12.148Z,20.07
2022-10-10T01:33:40.778Z,18.23
2022-10-10T01:36:10.676Z,16.73
2022-10-10T01:38:37.241Z,17.50
2022-10-10T01:41:08.648Z,15.87
2022-10-10T01:43:35.814Z,17.93
2022-10-10T01:46:09.698Z,14.07
2022-10-10T01:48:36.172Z,15.83
2022-10-10T01:51:09.723Z,17.33
2022-10-10T01:53:44.774Z,13.83
2022-10-10T01:56:17.350Z,16.33
2022-10-10T01:58:54.542Z,19.80
2022-10-10T02:01:31.349Z,12.13
2022-10-10T02:04:02.096Z,16.90
2022-10-10T02:06:36.196Z,14.67
2022-10-10T02:09:04.577Z,18.20
2022-10-10T02:11:32.594Z,12.93
2022-10-10T02:14:25.334Z,10.03
2022-10-10T02:16:52.847Z,14.67
2022-10-10T02:19:20.398Z,12.73
2022-10-10T02:21:47.258Z,10.30
2022-10-10T02:24:13.695Z,15.90
2022-10-10T02:26:40.264Z,11.80
2022-10-10T02:29:10.712Z,15.70
2022-10-10T02:31:43.206Z,14.80
2022-10-10T02:34:11.150Z,13.43
2022-10-10T02:36:37.706Z,9.70
2022-10-10T02:39:04.195Z,16.23
2022-10-10T02:41:30.739Z,10.80
2022-10-10T02:43:57.177Z,15.10
2022-10-10T02:46:23.750Z,12.43
2022-10-10T02:48:50.134Z,8.50
2022-10-10T02:51:16.617Z,7.97
2022-10-10T02:53:43.061Z,11.83
2022-10-10T02:56:09.561Z,15.37
2022-10-10T02:58:35.962Z,11.73
2022-10-10T03:01:02.429Z,9.83
2022-10-10T03:03:28.893Z,12.47
2022-10-10T03:05:55.296Z,10.33
2022-10-10T03:08:21.802Z,13.33
2022-10-10T03:10:57.963Z,10.80
2022-10-10T03:13:24.499Z,12.67
2022-10-10T03:15:50.999Z,9.53
2022-10-10T03:18:17.518Z,8.80
2022-10-10T03:20:53.498Z,9.17
2022-10-10T03:23:19.934Z,9.20
2022-10-10T03:25:46.381Z,8.67
2022-10-10T03:28:13.061Z,10.70
2022-10-10T03:30:39.566Z,9.73
2022-10-10T03:33:06.228Z,10.13
2022-10-10T03:35:32.784Z,8.10
2022-10-10T03:37:59.512Z,8.70
2022-10-10T03:40:26.144Z,9.10
2022-10-10T03:42:53.157Z,7.67
2022-10-10T03:45:19.901Z,7.20
2022-10-10T03:47:46.309Z,8.83
2022-10-10T03:50:12.884Z,6.60
2022-10-10T03:52:39.355Z,9.33
2022-10-10T03:55:06.054Z,8.27
2022-10-10T03:57:32.504Z,6.60
2022-10-10T03:59:58.966Z,8.30
2022-10-10T04:02:25.478Z,6.70
2022-10-10T04:04:51.954Z,9.30
2022-10-10T04:07:18.432Z,7.87
2022-10-10T04:09:45.192Z,7.13
2022-10-10T04:12:11.629Z,7.33
2022-10-10T04:14:38.037Z,5.67
2022-10-10T04:17:04.461Z,6.37
2022-10-10T04:19:30.903Z,7.10
2022-10-10T04:21:57.336Z,5.30
2022-10-10T04:24:23.732Z,5.47
2022-10-10T04:26:50.179Z,9.00
2022-10-10T04:29:16.604Z,8.57
2022-10-10T04:31:43.053Z,5.50
2022-10-10T04:34:09.540Z,9.07
2022-10-10T04:36:36.761Z,6.80
2022-10-10T04:39:03.999Z,6.17
2022-10-10T04:41:30.408Z,5.90
2022-10-10T04:43:56.827Z,5.40
2022-10-10T04:46:23.359Z,6.43
2022-10-10T04:48:50.462Z,7.43
2022-10-10T04:55:24.651Z,6.90
2022-10-10T04:57:51.120Z,4.83
2022-10-10T05:00:17.597Z,5.93
2022-10-10T05:02:44.066Z,4.17
2022-10-10T05:08:32.345Z,7.10
2022-10-10T05:10:58.746Z,5.07
2022-10-10T05:13:25.192Z,4.97
2022-10-10T05:15:52.300Z,6.10
2022-10-10T05:18:19.334Z,6.87
2022-10-10T05:20:47.776Z,4.13
2022-10-10T05:23:14.701Z,5.63
2022-10-10T05:25:43.578Z,7.40
2022-10-10T05:28:10.081Z,5.50
2022-10-10T05:30:36.543Z,6.17
2022-10-10T05:33:02.988Z,5.27
2022-10-10T05:35:29.482Z,6.13
2022-10-10T05:37:55.932Z,6.30
2022-10-10T05:40:22.730Z,6.93
2022-10-10T05:42:49.553Z,5.30
2022-10-10T05:45:16.262Z,7.23
2022-10-10T05:47:46.774Z,7.83
2022-10-10T05:57:07.224Z,6.57
2022-10-10T06:03:02.845Z,4.73
2022-10-10T06:05:29.304Z,5.30
2022-10-10T06:08:12.306Z,5.43
2022-10-10T06:10:43.008Z,8.40
2022-10-10T06:13:09.939Z,10.23
2022-10-10T06:15:36.437Z,7.53
2022-10-10T06:18:03.333Z,4.97
2022-10-10T06:24:04.779Z,4.13
2022-10-10T06:30:07.040Z,6.73
2022-10-10T06:32:33.517Z,7.30
2022-10-10T06:35:00.110Z,8.43
2022-10-10T06:37:26.648Z,8.33
2022-10-10T06:39:53.656Z,7.60
2022-10-10T06:45:50.112Z,4.27
2022-10-10T06:51:45.549Z,5.70
2022-10-10T06:54:12.252Z,4.93
2022-10-10T06:56:42.245Z,8.53
2022-10-10T06:59:08.695Z,3.00
2022-10-10T07:01:35.207Z,6.57
2022-10-10T07:04:01.707Z,9.27
2022-10-10T07:06:32.545Z,5.63
2022-10-10T07:09:01.129Z,5.00
2022-10-10T07:11:27.599Z,7.77
2022-10-10T07:13:54.276Z,7.40
2022-10-10T07:16:20.698Z,8.80
2022-10-10T07:18:47.143Z,6.57
2022-10-10T07:21:13.541Z,5.70
2022-10-10T07:23:40.094Z,5.87
2022-10-10T07:26:07.573Z,7.87
2022-10-10T07:28:34.133Z,3.73
2022-10-10T07:31:01.545Z,5.50
2022-10-10T07:33:31.365Z,4.87
2022-10-10T07:35:57.907Z,3.63
2022-10-10T07:38:24.415Z,5.70
2022-10-10T07:40:50.857Z,7.23
2022-10-10T07:43:17.497Z,6.17
2022-10-10T07:45:43.910Z,5.97
2022-10-10T07:48:10.345Z,5.67
2022-10-10T07:50:40.327Z,3.77
2022-10-10T07:53:08.073Z,5.20
2022-10-10T07:55:34.901Z,6.73
2022-10-10T07:58:03.796Z,7.37
2022-10-10T08:00:30.346Z,5.53
2022-10-10T08:02:56.845Z,5.37
2022-10-10T08:05:23.443Z,5.50
2022-10-10T08:07:50.303Z,6.73
2022-10-10T08:10:16.976Z,3.67
2022-10-10T08:12:44.482Z,7.60
2022-10-10T08:17:38.374Z,3.43
2022-10-10T08:20:05.118Z,3.30
2022-10-10T08:22:31.551Z,4.03
2022-10-10T08:24:57.995Z,4.87
2022-10-10T08:27:24.478Z,4.17
2022-10-10T08:29:50.986Z,3.33
2022-10-10T08:32:17.434Z,3.10
2022-10-10T08:34:43.961Z,3.60
2022-10-10T08:37:10.407Z,7.40
2022-10-10T08:39:36.953Z,7.30
2022-10-10T08:42:03.612Z,7.13
2022-10-10T08:44:48.630Z,3.77
2022-10-10T08:47:15.058Z,5.10
2022-10-10T08:49:45.781Z,6.20
2022-10-10T08:52:15.270Z,6.57
2022-10-10T08:54:41.738Z,3.10
2022-10-10T08:57:12.786Z,4.00
2022-10-10T08:59:39.290Z,4.40
2022-10-10T09:02:26.343Z,3.00
2022-10-10T09:04:59.821Z,5.07
2022-10-10T09:07:35.409Z,5.97
2022-10-10T09:10:20.759Z,6.27
2022-10-10T09:12:56.594Z,4.27
2022-10-10T09:15:28.786Z,3.77
2022-10-10T09:18:01.267Z,4.87
2022-10-10T09:20:39.980Z,5.23
2022-10-10T09:23:25.293Z,3.07
2022-10-10T09:25:54.082Z,3.97
2022-10-10T09:28:39.429Z,7.60
2022-10-10T09:31:07.785Z,5.45
2022-10-10T09:33:36.404Z,2.77
2022-10-10T09:36:03.628Z,3.83
2022-10-10T09:38:33.019Z,2.90
2022-10-10T09:41:01.175Z,2.80
2022-10-10T09:43:29.838Z,5.57
2022-10-10T09:45:56.601Z,4.38
2022-10-10T09:48:28.161Z,4.65
2022-10-10T09:50:54.648Z,4.50
2022-10-10T09:53:21.172Z,2.35
2022-10-10T09:55:47.659Z,4.60
2022-10-10T09:58:14.091Z,3.45
2022-10-10T10:00:40.623Z,4.00
2022-10-10T10:03:17.545Z,4.03
2022-10-10T10:05:45.234Z,3.75
2022-10-10T10:08:18.485Z,4.93
2022-10-10T10:10:45.033Z,3.97
2022-10-10T10:13:14.767Z,4.60
2022-10-10T10:15:41.274Z,3.28
2022-10-10T10:18:21.845Z,5.10
2022-10-10T10:20:49.131Z,7.10
2022-10-10T10:23:26.055Z,3.53
2022-10-10T10:26:19.197Z,3.60
2022-10-10T10:28:45.873Z,2.77
2022-10-10T10:31:14.553Z,3.30
2022-10-10T10:33:41.033Z,5.38
2022-10-10T10:36:10.278Z,3.50
2022-10-10T10:38:43.833Z,3.67
2022-10-10T10:41:25.513Z,4.63
2022-10-10T10:44:12.145Z,5.10
2022-10-10T10:46:46.257Z,6.07
2022-10-10T10:49:25.508Z,4.50
2022-10-10T10:51:55.416Z,2.40
2022-10-10T10:54:21.870Z,3.90
2022-10-10T10:57:11.142Z,2.85
2022-10-10T11:00:17.014Z,5.20
2022-10-10T11:02:54.924Z,4.93
2022-10-10T11:05:43.810Z,3.03
2022-10-10T11:08:19.837Z,4.10
2022-10-10T11:14:17.720Z,3.40
2022-10-10T11:16:54.956Z,3.00
2022-10-10T11:19:26.553Z,3.78
2022-10-10T11:22:06.357Z,5.63
2022-10-10T11:24:41.357Z,5.03
2022-10-10T11:27:23.616Z,2.80
2022-10-10T11:30:13.966Z,3.00
2022-10-10T11:33:03.236Z,3.25
2022-10-10T11:35:48.602Z,2.80
2022-10-10T11:38:16.990Z,3.38
2022-10-10T11:40:52.727Z,3.88
2022-10-10T11:43:30.056Z,2.92
2022-10-10T11:46:03.251Z,3.90
2022-10-10T11:48:36.467Z,5.50
2022-10-10T11:51:17.115Z,4.45
2022-10-10T11:53:44.253Z,3.63
2022-10-10T11:56:15.877Z,4.75
2022-10-10T11:58:50.964Z,4.28
2022-10-10T12:01:17.383Z,2.35
2022-10-10T12:03:43.850Z,4.05
2022-10-10T12:06:16.349Z,3.00
2022-10-10T12:09:06.291Z,3.55
2022-10-10T12:11:35.305Z,4.00
2022-10-10T12:14:01.803Z,2.30
2022-10-10T12:16:30.653Z,5.07
2022-10-10T12:19:07.025Z,2.60
2022-10-10T12:21:49.752Z,4.15
2022-10-10T12:24:16.184Z,2.60
2022-10-10T12:26:54.873Z,4.20
2022-10-10T12:29:39.689Z,4.13
2022-10-10T12:32:15.237Z,4.72
2022-10-10T12:34:47.820Z,5.07
2022-10-10T12:37:27.235Z,2.80
2022-10-10T12:40:05.889Z,2.88
2022-10-10T12:42:32.398Z,5.13
2022-10-10T12:44:58.924Z,3.80
2022-10-10T12:47:46.214Z,2.90
2022-10-10T12:50:24.294Z,5.55
2022-10-10T12:52:52.615Z,3.10
2022-10-10T12:55:26.295Z,5.05
2022-10-10T12:57:53.858Z,4.10
2022-10-10T13:00:21.429Z,5.32
2022-10-10T13:02:48.548Z,4.65
2022-10-10T13:05:15.876Z,4.00
2022-10-10T13:07:42.601Z,3.20
2022-10-10T13:10:16.491Z,3.03
2022-10-10T13:12:42.925Z,6.32
2022-10-10T13:15:20.144Z,3.70
2022-10-10T13:17:46.696Z,3.63
2022-10-10T13:20:35.544Z,3.50
2022-10-10T13:23:06.142Z,4.63
2022-10-10T13:25:32.890Z,4.55
2022-10-10T13:27:59.350Z,4.38
2022-10-10T13:30:25.800Z,2.95
2022-10-10T13:32:52.773Z,5.68
2022-10-10T13:35:26.794Z,7.05
2022-10-10T13:37:57.301Z,3.53
2022-10-10T13:40:23.709Z,5.32
2022-10-10T13:42:50.127Z,3.08
2022-10-10T13:45:26.609Z,4.32
2022-10-10T13:47:56.242Z,4.22
2022-10-10T13:50:29.091Z,5.93
2022-10-10T13:53:17.158Z,3.88
2022-10-10T13:55:43.610Z,3.33
2022-10-10T13:58:10.077Z,3.30
2022-10-10T14:00:36.859Z,4.22
2022-10-10T14:03:12.474Z,2.78
2022-10-10T14:05:39.807Z,3.90
2022-10-10T14:08:06.220Z,2.65
2022-10-10T14:10:37.141Z,3.25
2022-10-10T14:13:03.622Z,3.67
2022-10-10T14:15:42.368Z,4.95
2022-10-10T14:18:16.835Z,4.68
2022-10-10T14:20:43.704Z,3.95
2022-10-10T14:23:10.205Z,3.13
2022-10-10T14:25:46.783Z,2.42
2022-10-10T14:28:17.166Z,5.68
2022-10-10T14:30:43.869Z,13.48
2022-10-10T14:33:14.397Z,6.97
2022-10-10T14:35:41.293Z,10.40
2022-10-10T14:38:07.818Z,3.42
2022-10-10T14:40:34.334Z,36.08
2022-10-10T14:43:00.831Z,12.48
2022-10-10T14:45:27.289Z,21.88
2022-10-10T14:47:53.875Z,13.35
2022-10-10T14:50:24.274Z,5.45
2022-10-10T14:52:50.734Z,8.52
2022-10-10T14:55:17.203Z,5.80
2022-10-10T14:57:43.652Z,3.90
2022-10-10T15:00:14.446Z,3.38
2022-10-10T15:02:45.271Z,3.40
2022-10-10T15:05:12.273Z,7.07
2022-10-10T15:07:38.712Z,3.60
2022-10-10T15:12:51.770Z,3.13
2022-10-10T15:15:18.205Z,3.50
2022-10-10T15:17:44.659Z,6.03
2022-10-10T15:20:11.824Z,4.03
2022-10-10T15:22:38.396Z,3.78
2022-10-10T15:25:05.351Z,3.50
2022-10-10T15:27:32.915Z,3.47
2022-10-10T15:29:59.380Z,3.35
2022-10-10T15:32:25.820Z,3.45
2022-10-10T15:34:52.233Z,3.38
2022-10-10T15:37:18.662Z,5.97
2022-10-10T15:39:45.811Z,4.20
2022-10-10T15:42:17.270Z,6.65
2022-10-10T15:44:48.047Z,3.00
2022-10-10T15:47:14.990Z,4.22
2022-10-10T15:49:41.594Z,4.60
2022-10-10T15:52:08.272Z,3.20
2022-10-10T15:54:34.685Z,3.53
2022-10-10T15:57:01.171Z,3.05
2022-10-10T15:59:27.627Z,3.17
2022-10-10T16:01:55.492Z,4.15
2022-10-10T16:04:22.643Z,5.63
2022-10-10T16:06:54.515Z,1.83
2022-10-10T16:09:35.270Z,2.85
2022-10-10T16:12:01.855Z,5.10
2022-10-10T16:14:28.525Z,5.38
2022-10-10T16:16:54.986Z,6.28
2022-10-10T16:19:21.502Z,3.05
2022-10-10T16:21:47.962Z,4.25
2022-10-10T16:24:14.524Z,10.60
2022-10-10T16:26:41.017Z,5.13
2022-10-10T16:29:07.770Z,7.57
2022-10-10T16:31:36.676Z,4.90
2022-10-10T16:34:03.167Z,6.43
2022-10-10T16:36:30.627Z,7.72
2022-10-10T16:38:57.951Z,8.45
2022-10-10T16:41:46.910Z,16.92
2022-10-10T16:44:14.284Z,14.98
2022-10-10T16:46:40.702Z,14.15
2022-10-10T16:49:07.225Z,12.90
2022-10-10T16:51:33.787Z,14.07
2022-10-10T16:54:00.869Z,12.77
2022-10-10T16:56:27.433Z,16.63
2022-10-10T16:58:53.890Z,14.82
2022-10-10T17:01:20.996Z,13.07
2022-10-10T17:03:50.251Z,19.40
2022-10-10T17:06:19.004Z,15.05
2022-10-10T17:08:46.021Z,16.80
2022-10-10T17:11:14.570Z,13.55
2022-10-10T17:13:41.455Z,14.82
2022-10-10T17:16:40.476Z,21.17
2022-10-10T17:18:54.969Z,19.50
2022-10-10T17:21:22.513Z,23.90
2022-10-10T17:23:49.059Z,27.88
2022-10-10T17:26:16.406Z,24.67
2022-10-10T17:28:43.179Z,29.30
2022-10-10T17:31:11.762Z,28.10
2022-10-10T17:33:38.349Z,35.80
2022-10-10T17:36:08.561Z,28.58
2022-10-10T17:38:39.925Z,28.67
2022-10-10T17:41:06.823Z,22.98
2022-10-10T17:43:33.324Z,19.50
2022-10-10T17:46:21.657Z,17.30
2022-10-10T17:48:47.180Z,21.98
2022-10-10T17:51:13.927Z,14.57
2022-10-10T17:53:40.443Z,18.38
2022-10-10T17:56:16.921Z,18.92
2022-10-10T17:58:43.797Z,16.92
2022-10-10T18:01:10.635Z,16.48
2022-10-10T18:03:37.182Z,17.17
2022-10-10T18:06:07.269Z,14.55
2022-10-10T18:08:33.717Z,19.88
2022-10-10T18:11:00.388Z,14.60
2022-10-10T18:13:27.175Z,22.67
2022-10-10T18:16:06.219Z,21.02
2022-10-10T18:18:34.960Z,23.92
2022-10-10T18:21:02.765Z,24.27
2022-10-10T18:23:29.617Z,17.92
2022-10-10T18:26:00.161Z,16.73
2022-10-10T18:28:27.022Z,19.23
2022-10-10T18:30:53.550Z,21.25
2022-10-10T18:33:20.055Z,20.30
2022-10-10T18:35:46.481Z,17.02
2022-10-10T18:38:12.887Z,19.58
2022-10-10T18:40:39.344Z,19.85
2022-10-10T18:43:05.826Z,23.80
2022-10-10T18:45:32.305Z,24.80
2022-10-10T18:47:58.781Z,23.80
2022-10-10T18:50:25.201Z,16.92
2022-10-10T18:52:53.566Z,20.80
2022-10-10T18:55:20.113Z,19.27
2022-10-10T18:57:46.526Z,21.13
2022-10-10T19:00:13.226Z,17.23
2022-10-10T19:02:39.663Z,21.55
2022-10-10T19:05:06.261Z,19.75
2022-10-10T19:07:32.680Z,25.38
2022-10-10T19:09:59.129Z,23.65
2022-10-10T19:12:26.026Z,21.75
2022-10-10T19:14:52.454Z,19.60
2022-10-10T19:17:18.956Z,19.38
2022-10-10T19:19:45.599Z,22.00
2022-10-10T19:22:12.153Z,20.45
2022-10-10T19:24:38.579Z,21.90
2022-10-10T19:27:05.224Z,22.35
2022-10-10T19:29:31.645Z,23.83
2022-10-10T19:31:58.147Z,27.30
2022-10-10T19:34:25.345Z,25.45
2022-10-10T19:36:51.920Z,24.67
2022-10-10T19:39:18.411Z,28.63
2022-10-10T19:41:44.924Z,23.63
2022-10-10T19:44:11.465Z,26.63
2022-10-10T19:46:37.996Z,27.52
2022-10-10T19:49:04.703Z,28.70
2022-10-10T19:51:31.390Z,29.33
2022-10-10T19:53:57.876Z,30.90
2022-10-10T19:56:24.752Z,38.72
2022-10-10T19:58:55.115Z,36.55
2022-10-10T20:01:25.614Z,34.65
2022-10-10T20:03:55.004Z,33.63
2022-10-10T20:06:21.983Z,37.20
2022-10-10T20:08:48.600Z,32.60
2022-10-10T20:11:15.362Z,30.23
2022-10-10T20:13:41.922Z,29.15
2022-10-10T20:16:11.394Z,30.95
2022-10-10T20:18:39.205Z,24.77
2022-10-10T20:26:29.152Z,35.80
2022-10-10T20:28:56.236Z,34.57
2022-10-10T20:31:26.834Z,33.70
2022-10-10T20:33:53.984Z,32.10
2022-10-10T20:36:20.578Z,53.45
2022-10-10T20:38:53.879Z,54.85
2022-10-10T20:41:20.551Z,50.78
2022-10-10T20:43:48.780Z,42.90
2022-10-10T20:46:15.468Z,43.43
2022-10-10T20:48:42.018Z,39.50
2022-10-10T20:51:09.598Z,47.23
2022-10-10T20:53:36.426Z,42.90
2022-10-10T20:56:07.062Z,40.72
2022-10-10T20:58:33.979Z,38.50
2022-10-10T21:01:10.765Z,43.30
2022-10-10T21:03:37.804Z,35.83
2022-10-10T21:06:05.575Z,33.90
2022-10-10T21:08:32.399Z,37.08
2022-10-10T21:10:59.537Z,40.28
2022-10-10T21:13:26.149Z,39.05
2022-10-10T21:15:52.680Z,36.97
2022-10-10T21:18:20.428Z,48.27
2022-10-10T21:20:46.984Z,50.63
2022-10-10T21:23:13.692Z,53.97
2022-10-10T21:25:42.511Z,78.30
2022-10-10T21:28:09.279Z,82.50
2022-10-10T21:30:35.893Z,56.83
2022-10-10T21:33:02.419Z,61.53
2022-10-10T21:35:28.930Z,59.22
2022-10-10T21:37:55.459Z,57.30
2022-10-10T21:40:21.961Z,74.43
2022-10-10T21:42:48.486Z,65.05
2022-10-10T21:45:15.070Z,64.57
2022-10-10T21:47:42.317Z,60.70
2022-10-10T21:50:09.723Z,55.95
2022-10-10T21:52:38.458Z,64.37
2022-10-10T21:55:05.219Z,62.03
2022-10-10T21:57:31.756Z,58.53
2022-10-10T21:59:58.350Z,62.07
2022-10-10T22:02:24.895Z,64.78
2022-10-10T22:07:38.655Z,66.97
2022-10-10T22:10:05.731Z,57.93
2022-10-10T22:12:32.221Z,56.95
2022-10-10T22:14:58.739Z,57.10
2022-10-10T22:17:25.317Z,58.72
2022-10-10T22:19:51.880Z,55.60
2022-10-10T22:22:18.829Z,53.70
2022-10-10T22:24:45.540Z,46.80
2022-10-10T22:27:12.072Z,43.58
2022-10-10T22:29:38.618Z,46.30
2022-10-10T22:32:05.154Z,40.07
2022-10-10T22:34:31.626Z,41.63
2022-10-10T22:36:58.096Z,34.63
2022-10-10T22:39:24.567Z,38.50
2022-10-10T22:41:51.165Z,36.00
2022-10-10T22:44:17.950Z,41.87
2022-10-10T22:46:44.707Z,41.92
2022-10-10T22:49:11.243Z,38.30
2022-10-10T22:51:37.751Z,33.33
2022-10-10T22:54:04.338Z,38.17
2022-10-10T22:56:31.456Z,32.20
2022-10-10T22:58:57.943Z,31.77
2022-10-10T23:01:24.871Z,29.67
2022-10-10T23:04:00.376Z,24.98
2022-10-10T23:06:27.289Z,23.60
2022-10-10T23:08:57.017Z,22.80
2022-10-10T23:11:23.618Z,28.27
2022-10-10T23:13:50.121Z,28.47
2022-10-10T23:16:16.842Z,22.77
2022-10-10T23:18:43.374Z,24.47
2022-10-10T23:21:09.836Z,21.17
2022-10-10T23:23:36.845Z,25.40
2022-10-10T23:26:07.044Z,22.17
2022-10-10T23:28:34.273Z,18.17
2022-10-10T23:31:01.257Z,22.73
2022-10-10T23:33:27.852Z,24.98
2022-10-10T23:35:58.283Z,17.93
2022-10-10T23:38:24.838Z,21.63
2022-10-10T23:40:51.511Z,22.70
2022-10-10T23:43:18.023Z,19.70
2022-10-10T23:45:44.521Z,17.30
2022-10-10T23:48:11.075Z,17.30
2022-10-10T23:50:37.519Z,18.00
2022-10-10T23:53:04.070Z,18.33
2022-10-10T23:55:30.525Z,16.47
2022-10-10T23:57:58.390Z,17.67
